createdAt,value
2019-04-01T00:02:55.903Z,1018.7
2019-04-01T00:08:27.509Z,1018.8
2019-04-01T00:13:59.095Z,1018.8
2019-04-01T00:19:30.796Z,1018.8
2019-04-01T00:25:02.891Z,1018.7
2019-04-01T00:30:35.330Z,1018.6
2019-04-01T00:36:07.731Z,1018.5
2019-04-01T00:41:40.154Z,1018.5
2019-04-01T00:47:12.695Z,1018.6
2019-04-01T00:52:45.091Z,1018.7
2019-04-01T00:58:17.599Z,1018.7
2019-04-01T01:03:50.060Z,1018.6
2019-04-01T01:09:22.516Z,1018.6
2019-04-01T01:14:54.880Z,1018.6
2019-04-01T01:20:27.368Z,1018.6
2019-04-01T01:25:59.753Z,1018.6
2019-04-01T01:31:32.238Z,1018.6
2019-04-01T01:37:04.660Z,1018.4
2019-04-01T01:42:37.054Z,1018.5
2019-04-01T01:48:09.520Z,1018.7
2019-04-01T01:53:41.884Z,1018.7
2019-04-01T01:59:13.221Z,1018.7
2019-04-01T02:04:44.706Z,1018.7
2019-04-01T02:10:16.260Z,1018.6
2019-04-01T02:15:47.763Z,1018.5
2019-04-01T02:21:19.249Z,1018.5
2019-04-01T02:26:50.767Z,1018.5
2019-04-01T02:32:22.268Z,1018.4
2019-04-01T02:37:53.890Z,1018.7
2019-04-01T02:43:25.406Z,1018.7
2019-04-01T02:48:56.826Z,1018.9
2019-04-01T02:54:28.844Z,1018.8
2019-04-01T03:00:00.832Z,1018.6
2019-04-01T03:05:33.069Z,1018.5
2019-04-01T03:11:04.561Z,1019
2019-04-01T03:16:36.087Z,1018.8
2019-04-01T03:22:07.479Z,1018.9
2019-04-01T03:27:38.871Z,1018.8
2019-04-01T03:33:10.313Z,1018.6
2019-04-01T03:38:41.903Z,1018.5
2019-04-01T03:44:13.617Z,1018.4
2019-04-01T03:49:45.187Z,1018.4
2019-04-01T03:55:16.717Z,1018.6
2019-04-01T04:00:48.738Z,1018.6
2019-04-01T04:06:20.961Z,1018.7
2019-04-01T04:11:53.198Z,1018.7
2019-04-01T04:17:25.302Z,1018.7
2019-04-01T04:22:57.186Z,1018.5
2019-04-01T04:28:29.438Z,1018.5
2019-04-01T04:34:01.264Z,1018.5
2019-04-01T04:39:32.843Z,1018.6
2019-04-01T04:45:04.279Z,1018.8
2019-04-01T04:50:35.779Z,1018.9
2019-04-01T04:56:07.165Z,1019.1
2019-04-01T05:01:38.616Z,1019
2019-04-01T05:07:10.222Z,1019
2019-04-01T05:12:42.017Z,1019.1
2019-04-01T05:18:14.250Z,1019
2019-04-01T05:23:45.661Z,1018.9
2019-04-01T05:29:17.106Z,1018.8
2019-04-01T05:34:48.682Z,1018.6
2019-04-01T05:40:20.276Z,1018.5
2019-04-01T05:45:52.006Z,1018.5
2019-04-01T05:51:23.760Z,1018.6
2019-04-01T05:56:55.539Z,1018.4
2019-04-01T06:02:27.353Z,1018.2
2019-04-01T06:07:59.367Z,1018.3
2019-04-01T06:13:31.486Z,1018.3
2019-04-01T06:19:05.932Z,1018.3
2019-04-01T06:24:37.324Z,1018.3
2019-04-01T06:30:10.098Z,1018.2
2019-04-01T06:35:43.202Z,1018.2
2019-04-01T06:41:16.318Z,1018.1
2019-04-01T06:46:49.568Z,1018.2
2019-04-01T06:52:22.711Z,1018.1
2019-04-01T06:57:55.939Z,1018.1
2019-04-01T07:03:29.266Z,1018
2019-04-01T07:09:02.498Z,1018
2019-04-01T07:14:35.848Z,1018
2019-04-01T07:20:09.286Z,1018
2019-04-01T07:25:42.675Z,1017.9
2019-04-01T07:31:16.053Z,1017.9
2019-04-01T07:36:49.584Z,1017.8
2019-04-01T07:42:23.100Z,1017.7
2019-04-01T07:47:57.991Z,1017.7
2019-04-01T07:53:30.281Z,1017.7
2019-04-01T07:59:03.926Z,1017.6
2019-04-01T08:04:37.567Z,1017.6
2019-04-01T08:10:11.299Z,1017.5
2019-04-01T08:15:44.995Z,1017.5
2019-04-01T08:21:18.810Z,1017.4
2019-04-01T08:26:52.539Z,1017.3
2019-04-01T08:32:26.375Z,1017.2
2019-04-01T08:38:00.161Z,1017
2019-04-01T08:43:34.076Z,1017
2019-04-01T08:49:08.125Z,1017.1
2019-04-01T08:54:41.844Z,1017.3
2019-04-01T09:00:15.568Z,1017.7
2019-04-01T09:05:49.091Z,1017.4
2019-04-01T09:11:22.762Z,1017.1
2019-04-01T09:16:56.687Z,1017.1
2019-04-01T09:22:30.637Z,1017.1
2019-04-01T09:28:04.690Z,1016.8
2019-04-01T09:33:38.718Z,1017.1
2019-04-01T09:39:12.543Z,1016.9
2019-04-01T09:44:46.559Z,1016.7
2019-04-01T09:50:20.774Z,1016.6
2019-04-01T09:55:54.863Z,1016.6
2019-04-01T10:01:29.086Z,1016.5
2019-04-01T10:07:03.284Z,1016.4
2019-04-01T10:12:37.513Z,1016.4
2019-04-01T10:18:11.737Z,1016.4
2019-04-01T10:23:46.108Z,1016.3
2019-04-01T10:29:20.350Z,1016.3
2019-04-01T10:34:54.777Z,1016.3
2019-04-01T10:40:29.028Z,1016.1
2019-04-01T10:46:03.459Z,1016
2019-04-01T10:51:37.836Z,1015.9
2019-04-01T10:57:12.407Z,1015.9
2019-04-01T11:02:49.800Z,1015.7
2019-04-01T11:08:21.558Z,1015.7
2019-04-01T11:13:55.929Z,1015.6
2019-04-01T11:19:30.482Z,1015.6
2019-04-01T11:25:05.313Z,1015.4
2019-04-01T11:30:40.086Z,1015.5
2019-04-01T11:36:14.436Z,1015.3
2019-04-01T11:41:49.352Z,1015.4
2019-04-01T11:47:24.242Z,1015
2019-04-01T11:52:59.051Z,1015.1
2019-04-01T11:58:33.915Z,1015.2
2019-04-01T12:04:08.762Z,1015
2019-04-01T12:09:43.769Z,1014.9
2019-04-01T12:15:18.756Z,1014.8
2019-04-01T12:20:53.902Z,1014.8
2019-04-01T12:26:28.948Z,1014.6
2019-04-01T12:32:04.007Z,1014.5
2019-04-01T12:37:39.350Z,1014.6
2019-04-01T12:43:15.355Z,1014.4
2019-04-01T12:48:49.894Z,1014.2
2019-04-01T12:54:25.252Z,1014
2019-04-01T13:05:36.190Z,1014
2019-04-01T13:11:11.531Z,1013.9
2019-04-01T13:16:46.841Z,1013.9
2019-04-01T13:22:22.020Z,1013.9
2019-04-01T13:27:57.477Z,1013.9
2019-04-01T13:33:32.244Z,1013.6
2019-04-01T13:39:07.396Z,1013.5
2019-04-01T13:44:42.645Z,1013.5
2019-04-01T13:50:17.836Z,1013.6
2019-04-01T13:55:53.002Z,1013.4
2019-04-01T14:01:28.114Z,1013.3
2019-04-01T14:07:03.350Z,1013.4
2019-04-01T14:12:38.440Z,1013.4
2019-04-01T14:18:13.398Z,1013.2
2019-04-01T14:23:48.626Z,1013.1
2019-04-01T14:29:23.978Z,1013
2019-04-01T14:34:59.400Z,1013
2019-04-01T14:40:34.944Z,1012.8
2019-04-01T14:46:10.466Z,1012.8
2019-04-01T14:51:46.056Z,1012.7
2019-04-01T14:57:21.718Z,1012.7
2019-04-01T15:02:57.372Z,1012.7
2019-04-01T15:08:33.040Z,1012.8
2019-04-01T15:14:08.945Z,1012.8
2019-04-01T15:19:44.048Z,1012.6
2019-04-01T15:25:19.414Z,1012.7
2019-04-01T15:30:54.658Z,1012.6
2019-04-01T15:36:29.891Z,1012.5
2019-04-01T15:42:05.000Z,1012.7
2019-04-01T15:47:39.739Z,1012.7
2019-04-01T15:53:14.160Z,1012.7
2019-04-01T15:58:50.724Z,1012.8
2019-04-01T16:04:27.317Z,1012.8
2019-04-01T16:10:01.602Z,1012.8
2019-04-01T16:15:35.632Z,1012.8
2019-04-01T16:21:09.741Z,1012.8
2019-04-01T16:26:43.867Z,1012.8
2019-04-01T16:32:17.874Z,1012.9
2019-04-01T16:37:51.787Z,1013.1
2019-04-01T16:43:25.607Z,1013
2019-04-01T16:48:59.454Z,1013
2019-04-01T16:54:33.243Z,1013
2019-04-01T17:00:07.064Z,1013.2
2019-04-01T17:05:40.789Z,1013.1
2019-04-01T17:11:14.524Z,1013.1
2019-04-01T17:16:48.180Z,1013.1
2019-04-01T17:22:21.818Z,1013.1
2019-04-01T17:27:55.041Z,1013.2
2019-04-01T17:33:28.281Z,1013.2
2019-04-01T17:39:01.307Z,1013.3
2019-04-01T17:44:34.436Z,1013.4
2019-04-01T17:50:07.672Z,1013.4
2019-04-01T17:55:40.899Z,1013.5
2019-04-01T18:01:13.959Z,1013.6
2019-04-01T18:06:47.314Z,1013.6
2019-04-01T18:12:20.606Z,1013.7
2019-04-01T18:17:53.930Z,1013.7
2019-04-01T18:23:26.989Z,1013.9
2019-04-01T18:28:59.310Z,1014.1
2019-04-01T18:34:31.705Z,1014.3
2019-04-01T18:40:03.919Z,1014.5
2019-04-01T18:45:36.089Z,1014.6
2019-04-01T18:51:08.196Z,1014.7
2019-04-01T18:56:40.407Z,1014.8
2019-04-01T19:02:13.237Z,1014.7
2019-04-01T19:07:44.585Z,1014.8
2019-04-01T19:13:16.587Z,1014.8
2019-04-01T19:18:48.693Z,1014.8
2019-04-01T19:24:21.190Z,1014.9
2019-04-01T19:29:54.162Z,1014.9
2019-04-01T19:35:27.089Z,1015
2019-04-01T19:40:59.867Z,1015
2019-04-01T19:46:32.039Z,1015.1
2019-04-01T19:52:04.738Z,1015.1
2019-04-01T19:57:37.691Z,1015.2
2019-04-01T20:03:10.420Z,1015.2
2019-04-01T20:08:43.252Z,1015.2
2019-04-01T20:14:15.805Z,1015.2
2019-04-01T20:19:47.895Z,1015.3
2019-04-01T20:25:19.943Z,1015.6
2019-04-01T20:30:51.944Z,1015.4
2019-04-01T20:36:28.631Z,1015.4
2019-04-01T20:41:55.981Z,1015.4
2019-04-01T20:47:28.021Z,1015.4
2019-04-01T20:53:00.021Z,1015.3
2019-04-01T20:58:32.783Z,1015.3
2019-04-01T21:04:05.673Z,1015.3
2019-04-01T21:09:38.416Z,1015.3
2019-04-01T21:15:11.229Z,1015.4
2019-04-01T21:20:44.054Z,1015.4
2019-04-01T21:26:16.829Z,1015.5
2019-04-01T21:31:49.526Z,1015.4
2019-04-01T21:37:22.243Z,1015.4
2019-04-01T21:42:55.042Z,1015.4
2019-04-01T21:48:27.804Z,1015.4
2019-04-01T21:54:00.713Z,1015.4
2019-04-01T21:59:33.513Z,1015.4
2019-04-01T22:05:06.206Z,1015.5
2019-04-01T22:10:38.893Z,1015.7
2019-04-01T22:16:11.091Z,1015.7
2019-04-01T22:21:43.701Z,1015.7
2019-04-01T22:27:16.550Z,1015.6
2019-04-01T22:32:49.287Z,1015.6
2019-04-01T22:38:25.166Z,1015.5
2019-04-01T22:43:59.344Z,1015.8
2019-04-01T22:49:32.129Z,1015.8
2019-04-01T22:55:04.851Z,1016
2019-04-01T23:00:37.579Z,1016.4
2019-04-01T23:06:09.994Z,1016.5
2019-04-01T23:11:41.674Z,1016.5
2019-04-01T23:17:13.217Z,1016.5
2019-04-01T23:22:44.892Z,1016.6
2019-04-01T23:28:16.410Z,1016.5
2019-04-01T23:33:47.939Z,1016.4
2019-04-01T23:39:19.535Z,1016.5
2019-04-01T23:44:51.262Z,1016.6
2019-04-01T23:50:22.568Z,1016.4
2019-04-01T23:55:54.054Z,1016.5
